Time;durP1;ratioP1;P1;durP2;ratioP2;P2;SDS_P1;SDS_P2;PMS_P1;PMS_P2;Temp;Humidity;BMP_temperature;BMP_pressure;BME280_temperature;BME280_humidity;BME280_pressure;Samples;Min_cycle;Max_cycle;Signal;HPM_P1;HPM_P2
2021/01/10 00:00:17;;;;;;;10.98;6.03;;;1.20;96.10;;;;;;4977145;28;20058;-42
2021/01/10 00:02:44;;;;;;;9.43;5.75;;;1.10;96.10;;;;;;4991061;28;20018;-42
2021/01/10 00:05:20;;;;;;;10.50;5.85;;;1.10;96.10;;;;;;4977297;28;20182;-42
2021/01/10 00:07:46;;;;;;;8.65;6.45;;;1.00;96.10;;;;;;4989905;28;20545;-43
2021/01/10 00:10:12;;;;;;;9.80;6.50;;;1.00;96.20;;;;;;4978286;28;20027;-43
2021/01/10 00:12:38;;;;;;;9.40;6.80;;;0.90;96.20;;;;;;4989645;28;20509;-43
2021/01/10 00:15:05;;;;;;;12.90;8.02;;;0.90;96.20;;;;;;4980178;28;20026;-43
2021/01/10 00:17:31;;;;;;;14.18;8.82;;;0.90;96.30;;;;;;4987355;28;20161;-43
2021/01/10 00:19:56;;;;;;;10.73;7.43;;;0.90;96.30;;;;;;4982964;28;20118;-43
2021/01/10 00:22:23;;;;;;;11.57;7.45;;;0.90;96.30;;;;;;4983363;28;20031;-43
2021/01/10 00:24:49;;;;;;;10.15;7.53;;;0.80;96.30;;;;;;4985000;28;20033;-43
2021/01/10 00:27:17;;;;;;;12.93;7.45;;;0.80;96.60;;;;;;4981446;28;20030;-43
2021/01/10 00:29:46;;;;;;;10.25;7.57;;;0.80;96.30;;;;;;4987168;28;20393;-43
2021/01/10 00:32:12;;;;;;;10.55;8.02;;;0.80;96.30;;;;;;4980383;28;20041;-42
2021/01/10 00:34:38;;;;;;;12.52;8.48;;;0.70;96.30;;;;;;4987619;28;20121;-43
2021/01/10 00:37:10;;;;;;;13.10;9.68;;;0.70;96.30;;;;;;4978665;28;20042;-42
2021/01/10 00:39:36;;;;;;;12.20;9.02;;;0.70;96.40;;;;;;4988068;28;20145;-42
2021/01/10 00:42:08;;;;;;;15.35;8.65;;;0.70;96.40;;;;;;4978417;28;20097;-45
2021/01/10 00:44:34;;;;;;;10.18;7.88;;;0.60;96.30;;;;;;4987092;28;20030;-43
2021/01/10 00:47:00;;;;;;;9.98;8.15;;;0.60;96.40;;;;;;4977525;28;20021;-43
2021/01/10 00:49:25;;;;;;;11.68;8.27;;;0.60;96.40;;;;;;4988510;28;20022;-43
2021/01/10 00:51:52;;;;;;;11.30;8.30;;;0.60;96.40;;;;;;4977244;28;20031;-42
2021/01/10 00:54:18;;;;;;;13.15;8.32;;;0.50;96.40;;;;;;4988254;28;20569;-42
2021/01/10 00:56:44;;;;;;;12.68;9.88;;;0.50;96.40;;;;;;4977226;28;20027;-42
2021/01/10 00:59:09;;;;;;;14.05;9.68;;;0.50;96.50;;;;;;4988808;28;20178;-42
2021/01/10 01:01:35;;;;;;;13.38;9.35;;;0.50;96.50;;;;;;4979710;28;20165;-42
2021/01/10 01:04:00;;;;;;;14.45;9.20;;;0.50;96.50;;;;;;4985480;28;20034;-42
2021/01/10 01:06:26;;;;;;;12.50;9.18;;;0.40;96.50;;;;;;4981588;28;20050;-43
2021/01/10 01:08:52;;;;;;;15.65;10.48;;;0.40;96.50;;;;;;4983539;28;20042;-43
2021/01/10 01:11:32;;;;;;;12.50;9.90;;;0.50;96.60;;;;;;4983750;28;20088;-43
2021/01/10 01:13:58;;;;;;;13.65;10.20;;;0.40;96.50;;;;;;4982724;28;20042;-43
2021/01/10 01:16:24;;;;;;;13.57;10.30;;;0.40;96.60;;;;;;4985276;28;20038;-43
2021/01/10 01:18:49;;;;;;;11.85;8.40;;;0.40;96.60;;;;;;4978611;28;20057;-42
2021/01/10 01:21:20;;;;;;;14.50;10.20;;;0.40;96.60;;;;;;4986662;28;20113;-42
2021/01/10 01:23:46;;;;;;;16.55;11.15;;;0.40;96.60;;;;;;4977975;28;20034;-44
2021/01/10 01:26:16;;;;;;;12.05;9.90;;;0.40;96.60;;;;;;4986857;28;20015;-43
2021/01/10 01:28:43;;;;;;;16.83;9.95;;;0.40;96.70;;;;;;4980143;28;20031;-43
2021/01/10 01:31:30;;;;;;;16.80;11.63;;;0.40;96.70;;;;;;4969554;28;20042;-43
2021/01/10 01:33:56;;;;;;;15.98;10.20;;;0.40;96.70;;;;;;4986538;28;20783;-43
2021/01/10 01:36:27;;;;;;;15.95;10.68;;;0.40;96.60;;;;;;4987206;28;20014;-44
2021/01/10 01:38:54;;;;;;;15.80;10.82;;;0.30;96.60;;;;;;4985010;28;20443;-42
2021/01/10 01:41:20;;;;;;;16.08;10.15;;;0.30;96.70;;;;;;4988052;28;20097;-44
2021/01/10 01:43:46;;;;;;;27.08;12.13;;;0.30;96.70;;;;;;4968708;28;20026;-42
2021/01/10 01:46:28;;;;;;;28.38;11.90;;;0.30;96.80;;;;;;4968627;28;20033;-43
2021/01/10 01:48:57;;;;;;;16.10;11.52;;;0.40;96.80;;;;;;4980611;28;20482;-43
2021/01/10 01:51:23;;;;;;;19.42;11.57;;;0.40;96.70;;;;;;4968353;28;20510;-42
2021/01/10 01:53:48;;;;;;;17.60;11.07;;;0.30;96.70;;;;;;4980405;28;20058;-43
2021/01/10 01:56:15;;;;;;;19.20;11.85;;;0.30;97.00;;;;;;4968086;28;20026;-43
2021/01/10 01:58:55;;;;;;;23.05;11.55;;;0.30;96.80;;;;;;4978829;28;20124;-43
2021/01/10 02:01:21;;;;;;;17.10;11.13;;;0.30;96.80;;;;;;4968312;28;20034;-43
2021/01/10 02:03:47;;;;;;;23.88;11.57;;;0.30;96.80;;;;;;4972784;28;20041;-42
2021/01/10 02:06:18;;;;;;;26.55;11.75;;;0.30;96.80;;;;;;4983848;28;20119;-42
2021/01/10 02:08:46;;;;;;;15.18;10.13;;;0.30;96.80;;;;;;4979575;28;20039;-42
2021/01/10 02:11:12;;;;;;;19.95;11.70;;;0.30;96.80;;;;;;4983874;28;20029;-42
2021/01/10 02:13:39;;;;;;;14.70;9.88;;;0.30;96.80;;;;;;4981424;28;20042;-43
2021/01/10 02:16:05;;;;;;;12.25;9.85;;;0.30;96.80;;;;;;4981667;28;20474;-44
2021/01/10 02:18:34;;;;;;;14.43;9.18;;;0.30;96.80;;;;;;4983136;28;20475;-44
2021/01/10 02:21:08;;;;;;;12.90;8.70;;;0.20;96.80;;;;;;4979627;28;20018;-42
2021/01/10 02:23:35;;;;;;;11.73;8.77;;;0.20;96.70;;;;;;4984268;28;20351;-43
2021/01/10 02:26:02;;;;;;;14.48;9.25;;;0.20;96.80;;;;;;4978333;28;20073;-43
2021/01/10 02:28:31;;;;;;;13.88;9.50;;;0.10;96.80;;;;;;4985292;28;20030;-43
2021/01/10 02:30:58;;;;;;;13.77;8.73;;;0.10;96.80;;;;;;4976799;28;20371;-44
2021/01/10 02:33:45;;;;;;;11.38;8.60;;;0.00;96.80;;;;;;4985423;28;20077;-43
2021/01/10 02:36:29;;;;;;;13.05;8.23;;;0.00;96.90;;;;;;4976332;28;20033;-43
2021/01/10 02:39:09;;;;;;;14.00;8.40;;;0.00;96.90;;;;;;4983353;28;20089;-43
2021/01/10 02:41:45;;;;;;;13.30;8.70;;;0.00;96.90;;;;;;4976340;28;20062;-43
2021/01/10 02:44:25;;;;;;;15.50;9.70;;;0.00;96.90;;;;;;4970085;28;20031;-43
2021/01/10 02:46:52;;;;;;;15.60;9.48;;;0.00;96.90;;;;;;4976160;28;20399;-43
2021/01/10 02:49:19;;;;;;;11.65;9.40;;;0.00;96.90;;;;;;4968791;28;20034;-42
2021/01/10 02:51:45;;;;;;;10.70;7.93;;;0.00;96.90;;;;;;4978564;28;20394;-43
2021/01/10 02:54:12;;;;;;;10.90;8.68;;;-0.10;96.90;;;;;;4968694;28;20390;-43
2021/01/10 02:56:58;;;;;;;13.75;8.55;;;-0.10;96.90;;;;;;4978372;28;20027;-44
2021/01/10 02:59:26;;;;;;;11.40;8.88;;;-0.10;96.90;;;;;;4968234;28;20831;-43
2021/01/10 03:01:55;;;;;;;10.77;8.40;;;-0.10;96.90;;;;;;4978962;28;20022;-43
2021/01/10 03:04:22;;;;;;;12.82;9.13;;;-0.10;97.00;;;;;;4968480;28;20057;-42
2021/01/10 03:06:52;;;;;;;11.88;9.38;;;-0.10;96.90;;;;;;4978550;28;20169;-43
2021/01/10 03:09:18;;;;;;;12.55;9.38;;;-0.20;96.90;;;;;;4966881;28;20037;-43
2021/01/10 03:11:44;;;;;;;12.90;9.50;;;-0.20;96.90;;;;;;4979664;28;20023;-44
2021/01/10 03:14:09;;;;;;;10.98;9.07;;;-0.20;96.90;;;;;;4967812;28;20041;-43
2021/01/10 03:16:36;;;;;;;13.90;9.85;;;-0.20;96.90;;;;;;4979094;28;20034;-44
2021/01/10 03:19:01;;;;;;;14.38;10.07;;;-0.20;97.00;;;;;;4971007;28;20043;-44
2021/01/10 03:21:27;;;;;;;12.57;9.27;;;-0.20;97.00;;;;;;4981662;28;20106;-42
2021/01/10 03:23:54;;;;;;;12.40;9.50;;;-0.20;97.00;;;;;;4972846;28;20562;-43
2021/01/10 03:26:20;;;;;;;14.32;9.43;;;-0.20;97.00;;;;;;4979159;28;20347;-43
2021/01/10 03:28:46;;;;;;;14.48;10.25;;;-0.20;97.00;;;;;;4975367;28;20039;-44
2021/01/10 03:31:11;;;;;;;13.73;10.25;;;-0.20;97.00;;;;;;4976462;28;20026;-43
2021/01/10 03:33:38;;;;;;;13.68;9.90;;;-0.20;97.00;;;;;;4977656;28;20038;-43
2021/01/10 03:36:04;;;;;;;14.98;10.00;;;-0.20;97.00;;;;;;4974515;28;20124;-43
2021/01/10 03:38:30;;;;;;;15.15;10.63;;;-0.20;97.10;;;;;;4978877;28;20479;-43
2021/01/10 03:40:55;;;;;;;16.27;10.40;;;-0.10;97.20;;;;;;4972487;28;20034;-43
2021/01/10 03:43:21;;;;;;;13.70;9.90;;;0.00;97.20;;;;;;4981596;28;20030;-42
2021/01/10 03:45:47;;;;;;;11.23;9.32;;;0.00;97.20;;;;;;4972122;28;20373;-43
2021/01/10 03:48:12;;;;;;;16.38;10.68;;;0.00;97.20;;;;;;4981558;28;20446;-42
2021/01/10 03:50:38;;;;;;;15.75;11.07;;;0.00;97.20;;;;;;4971433;28;20037;-42
2021/01/10 03:53:03;;;;;;;14.98;11.13;;;0.10;97.20;;;;;;4982483;28;20027;-43
2021/01/10 03:55:28;;;;;;;16.02;11.35;;;0.10;97.20;;;;;;4970830;28;20455;-43
2021/01/10 03:57:54;;;;;;;13.48;10.23;;;0.20;97.20;;;;;;4982887;28;20029;-43
2021/01/10 04:00:20;;;;;;;16.55;11.25;;;0.20;97.20;;;;;;4970221;28;20029;-43
2021/01/10 04:02:45;;;;;;;15.50;10.43;;;0.30;97.20;;;;;;4981113;28;20437;-44
2021/01/10 04:05:11;;;;;;;13.82;10.48;;;0.30;97.10;;;;;;4972256;28;20778;-43
2021/01/10 04:07:36;;;;;;;15.52;10.23;;;0.30;97.00;;;;;;4977176;28;20057;-43
2021/01/10 04:10:03;;;;;;;15.70;10.57;;;0.30;97.00;;;;;;4975449;28;20469;-43
2021/01/10 04:12:29;;;;;;;15.45;10.02;;;0.30;97.00;;;;;;4974578;28;20053;-43
2021/01/10 04:14:57;;;;;;;15.15;10.05;;;0.30;97.00;;;;;;4977262;28;20123;-43
2021/01/10 04:17:25;;;;;;;13.50;9.50;;;0.30;96.90;;;;;;4972884;28;20023;-42
2021/01/10 04:19:51;;;;;;;13.65;9.55;;;0.20;96.90;;;;;;4978941;28;20570;-42
2021/01/10 04:22:17;;;;;;;15.32;10.05;;;0.20;96.90;;;;;;4971497;28;20113;-43
2021/01/10 04:24:42;;;;;;;14.27;9.85;;;0.20;96.90;;;;;;4981172;28;20479;-42
2021/01/10 04:27:08;;;;;;;15.98;10.98;;;0.10;96.80;;;;;;4971179;28;20027;-42
2021/01/10 04:29:33;;;;;;;13.85;10.23;;;0.10;96.90;;;;;;4980169;28;20035;-43
2021/01/10 04:31:59;;;;;;;14.30;10.85;;;0.10;96.90;;;;;;4970560;28;20065;-43
2021/01/10 04:34:24;;;;;;;12.75;10.32;;;0.00;96.80;;;;;;4981212;28;20043;-42
2021/01/10 04:36:50;;;;;;;16.40;10.68;;;0.00;96.90;;;;;;4970259;28;20069;-42
2021/01/10 04:39:16;;;;;;;15.40;10.05;;;-0.10;96.90;;;;;;4981528;28;20034;-42
2021/01/10 04:41:43;;;;;;;15.20;9.95;;;-0.10;96.90;;;;;;4970007;28;20022;-42
2021/01/10 04:44:08;;;;;;;13.30;9.93;;;-0.10;97.00;;;;;;4980296;28;20109;-43
2021/01/10 04:46:35;;;;;;;13.90;9.97;;;-0.20;96.90;;;;;;4971730;28;20117;-43
2021/01/10 04:49:01;;;;;;;15.87;10.37;;;-0.20;97.00;;;;;;4976823;28;20471;-43
2021/01/10 04:51:27;;;;;;;13.23;9.70;;;-0.20;97.00;;;;;;4973925;28;20027;-43
2021/01/10 04:53:56;;;;;;;12.52;9.77;;;-0.20;97.00;;;;;;4975241;28;20313;-43
2021/01/10 04:56:28;;;;;;;13.53;10.10;;;-0.20;97.00;;;;;;4975856;28;20038;-42
2021/01/10 04:58:54;;;;;;;12.43;9.85;;;-0.30;97.00;;;;;;4973739;28;20030;-43
2021/01/10 05:01:23;;;;;;;13.15;9.20;;;-0.30;97.00;;;;;;4977903;28;20030;-43
2021/01/10 05:03:50;;;;;;;12.57;9.15;;;-0.30;97.00;;;;;;4970838;28;20074;-42
2021/01/10 05:06:16;;;;;;;16.95;10.45;;;-0.30;97.10;;;;;;4978864;28;20058;-42
2021/01/10 05:08:42;;;;;;;13.63;9.93;;;-0.30;97.10;;;;;;4970881;28;20114;-42
2021/01/10 05:11:08;;;;;;;12.73;9.20;;;-0.40;97.10;;;;;;4980246;28;20026;-42
2021/01/10 05:13:33;;;;;;;11.63;9.20;;;-0.40;97.10;;;;;;4969588;28;20458;-43
2021/01/10 05:15:59;;;;;;;14.27;9.85;;;-0.40;97.10;;;;;;4980612;28;20118;-43
2021/01/10 05:18:25;;;;;;;12.80;9.95;;;-0.40;97.10;;;;;;4969194;28;20034;-44
2021/01/10 05:20:54;;;;;;;13.47;9.87;;;-0.50;97.00;;;;;;4981733;28;20029;-43
2021/01/10 05:23:26;;;;;;;12.68;9.90;;;-0.50;97.00;;;;;;4968833;28;20095;-42
2021/01/10 05:26:05;;;;;;;14.45;9.85;;;-0.50;97.10;;;;;;4980993;28;20029;-44
2021/01/10 05:28:32;;;;;;;13.23;9.70;;;-0.50;97.10;;;;;;4968590;28;20030;-43
2021/01/10 05:31:00;;;;;;;12.65;9.68;;;-0.50;97.10;;;;;;4981224;28;20032;-43
2021/01/10 05:33:25;;;;;;;14.73;9.30;;;-0.50;97.10;;;;;;4968556;28;20031;-44
2021/01/10 05:35:53;;;;;;;13.35;9.40;;;-0.50;97.10;;;;;;4973233;28;20026;-43
2021/01/10 05:38:32;;;;;;;14.37;9.93;;;-0.50;97.10;;;;;;4985748;28;20048;-43
2021/01/10 05:41:00;;;;;;;12.75;9.75;;;-0.50;97.20;;;;;;4979296;28;20031;-43
2021/01/10 05:43:26;;;;;;;16.13;10.95;;;-0.50;97.30;;;;;;4985519;28;20038;-43
2021/01/10 05:45:53;;;;;;;14.27;10.20;;;-0.40;97.40;;;;;;4980397;28;20378;-43
2021/01/10 05:48:19;;;;;;;14.77;10.80;;;-0.30;97.40;;;;;;4983398;28;20026;-43
2021/01/10 05:50:49;;;;;;;17.02;9.98;;;-0.30;97.30;;;;;;4982990;28;20115;-42
2021/01/10 05:53:18;;;;;;;15.10;10.32;;;-0.20;97.40;;;;;;4980996;28;20173;-43
2021/01/10 05:56:00;;;;;;;18.00;10.70;;;-0.20;97.30;;;;;;4985125;28;20097;-46
2021/01/10 05:58:27;;;;;;;11.90;9.18;;;-0.20;97.30;;;;;;4980623;28;20038;-44
2021/01/10 06:00:54;;;;;;;14.20;10.50;;;-0.20;97.30;;;;;;4985011;28;20022;-43
2021/01/10 06:03:21;;;;;;;14.88;10.40;;;-0.10;97.30;;;;;;4979036;28;20022;-43
2021/01/10 06:05:58;;;;;;;14.77;10.70;;;-0.10;97.30;;;;;;4986067;28;20025;-43
2021/01/10 06:08:27;;;;;;;15.87;10.27;;;0.00;97.30;;;;;;4977786;28;20390;-43
2021/01/10 06:10:53;;;;;;;13.70;9.63;;;0.00;97.30;;;;;;4985055;28;20106;-42
2021/01/10 06:13:19;;;;;;;14.88;10.48;;;0.00;97.30;;;;;;4977886;28;20474;-42
2021/01/10 06:15:48;;;;;;;13.67;10.30;;;0.10;97.30;;;;;;4969964;28;20033;-42
2021/01/10 06:18:16;;;;;;;13.75;10.55;;;0.20;97.30;;;;;;4978967;28;20077;-43
2021/01/10 06:20:42;;;;;;;15.20;10.40;;;0.20;97.20;;;;;;4967781;28;20620;-42
2021/01/10 06:23:08;;;;;;;14.53;11.03;;;0.30;97.20;;;;;;4976159;28;20022;-42
2021/01/10 06:25:37;;;;;;;12.57;10.10;;;0.30;97.20;;;;;;4987488;28;20034;-42
2021/01/10 06:28:11;;;;;;;15.75;9.63;;;0.30;97.10;;;;;;4974931;28;20027;-42
2021/01/10 06:30:40;;;;;;;13.18;9.15;;;0.30;97.00;;;;;;4987488;28;20026;-42
2021/01/10 06:33:11;;;;;;;12.93;9.50;;;0.30;97.00;;;;;;4974778;28;20030;-43
2021/01/10 06:35:39;;;;;;;13.60;9.53;;;0.30;97.00;;;;;;4987070;28;20042;-42
2021/01/10 06:38:06;;;;;;;13.70;8.77;;;0.40;97.00;;;;;;4975690;28;20506;-43
2021/01/10 06:40:33;;;;;;;12.00;8.97;;;0.40;97.00;;;;;;4985632;28;20030;-43
2021/01/10 06:43:02;;;;;;;13.85;9.15;;;0.40;97.00;;;;;;4978766;28;20026;-42
2021/01/10 06:45:34;;;;;;;12.98;9.55;;;0.40;97.00;;;;;;4984324;28;20034;-42
2021/01/10 06:48:00;;;;;;;11.13;8.60;;;0.50;97.00;;;;;;4979175;28;20026;-43
2021/01/10 06:50:26;;;;;;;12.13;8.90;;;0.50;96.90;;;;;;4982099;28;20386;-43
2021/01/10 06:52:54;;;;;;;13.35;9.60;;;0.50;96.90;;;;;;4981525;28;20059;-43
2021/01/10 06:55:19;;;;;;;12.17;8.77;;;0.50;96.90;;;;;;4979961;28;20114;-43
2021/01/10 06:57:45;;;;;;;10.70;9.05;;;0.50;96.90;;;;;;4984482;28;20030;-43
2021/01/10 07:00:11;;;;;;;14.23;10.93;;;0.50;96.80;;;;;;4977504;28;20088;-41
2021/01/10 07:03:06;;;;;;;12.98;8.93;;;0.50;96.80;;;;;;4985556;28;20034;-42
2021/01/10 07:06:06;;;;;;;11.97;9.63;;;0.50;96.80;;;;;;4979086;28;20062;-43
2021/01/10 07:08:40;;;;;;;12.20;8.85;;;0.40;96.80;;;;;;4981926;28;20042;-43
2021/01/10 07:11:23;;;;;;;18.52;11.40;;;0.40;96.80;;;;;;4972971;28;20042;-42
2021/01/10 07:13:55;;;;;;;14.63;10.27;;;0.40;96.80;;;;;;4975079;28;20039;-43
2021/01/10 07:16:25;;;;;;;15.00;10.73;;;0.40;96.80;;;;;;4971315;28;20038;-43
2021/01/10 07:18:52;;;;;;;14.80;10.65;;;0.40;96.80;;;;;;4973307;28;20025;-43
2021/01/10 07:21:41;;;;;;;16.90;10.63;;;0.40;96.90;;;;;;4972883;28;20854;-43
2021/01/10 07:24:26;;;;;;;16.95;10.77;;;0.40;96.90;;;;;;4973612;28;20060;-43
2021/01/10 07:26:54;;;;;;;14.38;10.45;;;0.40;96.80;;;;;;4970464;28;20046;-42
2021/01/10 07:29:33;;;;;;;12.73;9.07;;;0.40;96.90;;;;;;4974112;28;20111;-42
2021/01/10 07:32:01;;;;;;;11.13;8.43;;;0.40;96.90;;;;;;4970552;28;20066;-42
2021/01/10 07:34:28;;;;;;;12.77;9.23;;;0.50;96.90;;;;;;4973854;28;20062;-43
2021/01/10 07:36:58;;;;;;;11.05;7.70;;;0.50;96.90;;;;;;4972059;28;20034;-43
2021/01/10 07:39:37;;;;;;;12.70;8.90;;;0.50;96.80;;;;;;4971241;28;20193;-43
2021/01/10 07:42:08;;;;;;;12.38;9.07;;;0.60;96.90;;;;;;4972844;28;20031;-43
2021/01/10 07:44:48;;;;;;;15.05;10.50;;;0.60;96.80;;;;;;4971261;28;20034;-43
2021/01/10 07:47:14;;;;;;;14.60;10.88;;;0.60;96.80;;;;;;4971677;28;20031;-43
2021/01/10 07:49:56;;;;;;;15.32;9.45;;;0.70;96.80;;;;;;4971515;28;20015;-43
2021/01/10 07:52:46;;;;;;;11.02;9.38;;;0.70;96.80;;;;;;4972372;28;20066;-42
2021/01/10 07:55:11;;;;;;;15.35;10.40;;;0.70;96.80;;;;;;4972878;28;20054;-43
2021/01/10 07:57:37;;;;;;;12.82;9.45;;;0.80;96.80;;;;;;4971787;28;20045;-43
2021/01/10 08:00:04;;;;;;;12.65;9.63;;;0.80;96.80;;;;;;4971686;28;20115;-45
2021/01/10 08:02:48;;;;;;;13.45;9.38;;;0.80;96.70;;;;;;4973634;28;20093;-43
2021/01/10 08:05:16;;;;;;;14.77;8.75;;;0.90;96.80;;;;;;4972483;28;20551;-42
2021/01/10 08:07:58;;;;;;;11.45;8.85;;;0.90;96.70;;;;;;4977939;28;20038;-41
2021/01/10 08:10:27;;;;;;;10.38;8.27;;;0.90;96.70;;;;;;4974746;28;20022;-44
2021/01/10 08:12:52;;;;;;;15.32;9.52;;;0.90;96.70;;;;;;4977323;28;20031;-43
2021/01/10 08:15:18;;;;;;;11.82;8.40;;;1.00;96.70;;;;;;4972739;28;20037;-44
2021/01/10 08:17:44;;;;;;;10.35;7.35;;;1.00;96.70;;;;;;4979318;28;20031;-43
2021/01/10 08:20:10;;;;;;;10.52;8.20;;;1.00;96.70;;;;;;4970676;28;20019;-43
2021/01/10 08:22:37;;;;;;;11.57;8.02;;;1.10;96.70;;;;;;4980529;28;20046;-42
2021/01/10 08:25:17;;;;;;;11.13;7.82;;;1.10;96.70;;;;;;4971669;28;20033;-43
2021/01/10 08:27:44;;;;;;;11.23;8.10;;;1.10;96.70;;;;;;4981091;28;20051;-42
2021/01/10 08:30:10;;;;;;;10.45;8.20;;;1.20;96.70;;;;;;4971211;28;20439;-43
2021/01/10 08:32:37;;;;;;;9.13;7.43;;;1.20;96.70;;;;;;4980633;28;20019;-43
2021/01/10 08:35:03;;;;;;;10.23;8.23;;;1.20;96.60;;;;;;4970385;28;20060;-43
2021/01/10 08:37:28;;;;;;;11.40;8.07;;;1.20;96.60;;;;;;4981692;28;20026;-43
2021/01/10 08:40:03;;;;;;;10.63;8.15;;;1.30;96.60;;;;;;4970031;28;20037;-43
2021/01/10 08:42:33;;;;;;;13.07;9.90;;;1.20;96.60;;;;;;4981576;28;20655;-43
2021/01/10 08:45:16;;;;;;;15.25;9.50;;;1.20;96.50;;;;;;4970290;28;20078;-43
2021/01/10 08:47:43;;;;;;;11.50;9.63;;;1.20;96.60;;;;;;4981609;28;20027;-43
2021/01/10 08:50:10;;;;;;;11.18;8.95;;;1.20;96.60;;;;;;4970109;28;20847;-44
2021/01/10 08:52:49;;;;;;;14.55;9.82;;;1.10;96.60;;;;;;4981206;28;20081;-44
2021/01/10 08:55:15;;;;;;;12.88;9.52;;;1.20;96.70;;;;;;4969036;28;20059;-43
2021/01/10 08:57:41;;;;;;;10.98;9.18;;;1.20;96.80;;;;;;4973544;28;20039;-42
2021/01/10 09:00:08;;;;;;;16.58;10.68;;;1.20;96.80;;;;;;4978446;28;20026;-43
2021/01/10 09:02:34;;;;;;;18.67;12.05;;;1.30;96.80;;;;;;4975544;28;20022;-42
2021/01/10 09:04:59;;;;;;;12.23;10.32;;;1.40;96.70;;;;;;4974575;28;20514;-43
2021/01/10 09:07:25;;;;;;;12.48;10.27;;;1.40;96.70;;;;;;4982169;28;20086;-44
2021/01/10 09:10:00;;;;;;;14.75;10.38;;;1.50;96.70;;;;;;4981573;28;20471;-42
2021/01/10 09:12:42;;;;;;;13.55;9.77;;;1.60;96.70;;;;;;4983135;28;20383;-45
2021/01/10 09:15:09;;;;;;;12.90;9.68;;;1.60;96.60;;;;;;4981819;28;20046;-42
2021/01/10 09:17:38;;;;;;;15.07;9.73;;;1.60;96.60;;;;;;4983677;28;20081;-44
2021/01/10 09:20:08;;;;;;;15.85;10.07;;;1.60;96.60;;;;;;4980488;28;20030;-43
2021/01/10 09:22:34;;;;;;;12.88;10.35;;;1.60;96.60;;;;;;4983721;28;20026;-43
2021/01/10 09:25:17;;;;;;;11.63;9.55;;;1.60;96.60;;;;;;4978753;28;20037;-43
2021/01/10 09:28:11;;;;;;;12.60;9.75;;;1.70;96.60;;;;;;4985512;28;20425;-42
2021/01/10 09:30:51;;;;;;;13.48;10.50;;;1.70;96.60;;;;;;4980827;28;20029;-43
2021/01/10 09:33:22;;;;;;;13.48;10.85;;;1.70;96.60;;;;;;4981434;28;20482;-43
2021/01/10 09:35:48;;;;;;;13.55;10.52;;;1.80;96.60;;;;;;4982287;28;20076;-43
2021/01/10 09:38:22;;;;;;;17.00;11.30;;;1.80;96.60;;;;;;4983196;28;20386;-43
2021/01/10 09:41:09;;;;;;;12.20;9.80;;;1.90;96.60;;;;;;4980628;28;20030;-43
2021/01/10 09:43:42;;;;;;;15.82;10.85;;;1.90;96.50;;;;;;4981461;28;20035;-43
2021/01/10 09:46:36;;;;;;;13.40;10.20;;;1.90;96.50;;;;;;4982188;28;20053;-43
2021/01/10 09:49:07;;;;;;;12.52;10.02;;;1.90;96.50;;;;;;4979829;28;20101;-43
2021/01/10 09:51:57;;;;;;;14.00;10.82;;;2.00;96.50;;;;;;4982841;28;20026;-42
2021/01/10 09:54:25;;;;;;;12.30;10.15;;;2.00;96.50;;;;;;4977067;28;20564;-42
2021/01/10 09:57:00;;;;;;;12.10;10.15;;;2.00;96.50;;;;;;4985127;28;20065;-43
2021/01/10 09:59:41;;;;;;;14.52;10.68;;;2.00;96.40;;;;;;4977620;28;20053;-43
2021/01/10 10:02:21;;;;;;;13.20;11.30;;;2.00;96.50;;;;;;4985316;28;20085;-44
2021/01/10 10:04:51;;;;;;;14.65;11.13;;;2.00;96.50;;;;;;4977480;28;20486;-43
2021/01/10 10:07:34;;;;;;;15.15;10.45;;;2.00;96.50;;;;;;4984857;28;20121;-43
2021/01/10 10:10:01;;;;;;;13.15;10.52;;;2.10;96.60;;;;;;4977250;28;20027;-43
2021/01/10 10:12:27;;;;;;;14.07;11.10;;;2.10;96.60;;;;;;4983959;28;20053;-42
2021/01/10 10:15:09;;;;;;;12.43;11.00;;;2.20;96.50;;;;;;4979322;28;20039;-43
2021/01/10 10:17:36;;;;;;;15.02;11.30;;;2.30;96.50;;;;;;4984760;28;20125;-42
2021/01/10 10:20:04;;;;;;;14.50;10.88;;;2.30;96.50;;;;;;4978960;28;20030;-42
2021/01/10 10:22:34;;;;;;;16.58;11.57;;;2.40;96.50;;;;;;4972922;28;20117;-43
2021/01/10 10:25:02;;;;;;;12.95;11.15;;;2.50;96.50;;;;;;4976671;28;20697;-43
2021/01/10 10:27:29;;;;;;;13.40;11.00;;;2.50;96.40;;;;;;4972327;28;20041;-43
2021/01/10 10:29:55;;;;;;;14.32;11.30;;;2.60;96.40;;;;;;4971153;28;20031;-44
2021/01/10 10:32:21;;;;;;;14.73;11.60;;;2.60;96.30;;;;;;4975789;28;20038;-43
2021/01/10 10:34:48;;;;;;;16.60;13.00;;;2.70;96.30;;;;;;4969715;28;20135;-42
2021/01/10 10:37:15;;;;;;;14.38;12.32;;;2.70;96.40;;;;;;4978354;28;20565;-43
2021/01/10 10:39:40;;;;;;;15.38;12.02;;;2.70;96.30;;;;;;4969284;28;20027;-44
2021/01/10 10:42:10;;;;;;;13.23;10.73;;;2.80;96.30;;;;;;4983850;28;20023;-43
2021/01/10 10:44:35;;;;;;;16.05;11.65;;;2.80;96.30;;;;;;4969344;28;20022;-45
2021/01/10 10:47:01;;;;;;;15.70;12.00;;;2.80;96.30;;;;;;4978597;28;20050;-43
2021/01/10 10:49:28;;;;;;;13.82;11.73;;;2.90;96.30;;;;;;4967150;28;20058;-42
2021/01/10 10:51:54;;;;;;;15.95;12.80;;;2.90;96.20;;;;;;4979467;28;20052;-42
2021/01/10 10:54:19;;;;;;;15.25;12.02;;;3.00;96.20;;;;;;4966361;28;20526;-42
2021/01/10 10:56:48;;;;;;;13.23;11.82;;;2.90;96.20;;;;;;4978345;28;20070;-42
2021/01/10 10:59:14;;;;;;;17.63;12.27;;;2.90;96.10;;;;;;4967237;28;20074;-43
2021/01/10 11:01:47;;;;;;;15.57;11.93;;;2.90;96.10;;;;;;4970544;28;20022;-43
2021/01/10 11:04:13;;;;;;;18.00;13.88;;;2.80;96.10;;;;;;4983956;28;20169;-43
2021/01/10 11:06:39;;;;;;;17.95;13.73;;;2.70;96.20;;;;;;4978745;28;20463;-43
2021/01/10 11:09:08;;;;;;;16.52;12.55;;;2.60;96.20;;;;;;4994294;23;20050;-31
2021/01/10 11:11:43;;;;;;;15.32;13.30;;;2.70;96.40;;;;;;4983858;28;20041;-33
2021/01/10 11:14:09;;;;;;;14.55;11.50;;;2.70;96.50;;;;;;4985614;28;20038;-31
2021/01/10 11:16:36;;;;;;;15.13;12.32;;;2.70;96.50;;;;;;4984200;28;20135;-36
2021/01/10 11:19:03;;;;;;;16.83;13.15;;;2.80;96.50;;;;;;4979588;28;20237;-31
2021/01/10 11:21:34;;;;;;;16.15;12.75;;;2.90;96.60;;;;;;4981301;28;20030;-30
2021/01/10 11:24:01;;;;;;;15.05;12.07;;;3.00;96.50;;;;;;4980041;28;20034;-31
2021/01/10 11:26:27;;;;;;;15.52;12.50;;;3.10;96.40;;;;;;4985567;28;20117;-31
2021/01/10 11:28:52;;;;;;;15.65;11.93;;;3.20;96.30;;;;;;4985449;28;20117;-30
2021/01/10 11:31:19;;;;;;;17.75;12.63;;;3.20;96.20;;;;;;4984821;28;20405;-32
2021/01/10 11:33:45;;;;;;;14.45;11.88;;;3.30;96.10;;;;;;4983781;28;20034;-32
2021/01/10 11:36:12;;;;;;;17.13;12.95;;;3.30;96.10;;;;;;4982386;28;20549;-30
2021/01/10 11:38:39;;;;;;;14.57;11.90;;;3.30;96.10;;;;;;4983859;28;20140;-32
2021/01/10 11:41:09;;;;;;;14.70;11.95;;;3.30;96.40;;;;;;4987569;28;20049;-30
2021/01/10 11:43:35;;;;;;;15.20;11.45;;;3.30;96.10;;;;;;4986254;28;20126;-31
2021/01/10 11:46:02;;;;;;;13.52;11.88;;;3.30;96.20;;;;;;4986877;28;20740;-31
2021/01/10 11:48:28;;;;;;;14.57;11.30;;;3.30;96.20;;;;;;4987366;28;20545;-31
2021/01/10 11:50:54;;;;;;;16.77;11.43;;;3.30;96.20;;;;;;4988411;28;20150;-31
2021/01/10 11:53:19;;;;;;;13.55;9.90;;;3.30;96.20;;;;;;4988209;28;20046;-31
2021/01/10 11:55:45;;;;;;;11.82;10.55;;;3.40;96.30;;;;;;4989031;28;20084;-31
2021/01/10 11:58:11;;;;;;;13.05;11.02;;;3.40;96.20;;;;;;4988207;28;20046;-30
2021/01/10 12:00:38;;;;;;;13.30;10.95;;;3.50;96.30;;;;;;4988521;28;20034;-31
2021/01/10 12:03:03;;;;;;;13.40;11.00;;;3.50;96.20;;;;;;4988114;28;20042;-31
2021/01/10 12:05:29;;;;;;;13.30;10.73;;;3.60;96.20;;;;;;4984345;28;20406;-30
2021/01/10 12:07:54;;;;;;;11.50;9.98;;;3.70;96.20;;;;;;4977921;28;20062;-31
2021/01/10 12:10:20;;;;;;;13.32;11.45;;;3.80;96.10;;;;;;4979708;28;20046;-31
2021/01/10 12:12:46;;;;;;;13.50;10.73;;;3.90;96.10;;;;;;4985088;28;20026;-32
2021/01/10 12:15:11;;;;;;;13.80;11.07;;;3.90;96.00;;;;;;4987317;28;20038;-32
2021/01/10 12:17:37;;;;;;;15.65;12.10;;;4.00;95.90;;;;;;4987119;28;20422;-32
2021/01/10 12:20:04;;;;;;;14.95;12.10;;;4.00;95.90;;;;;;4987859;28;20030;-29
2021/01/10 12:22:30;;;;;;;12.68;11.10;;;4.00;95.80;;;;;;4985319;28;20041;-30
2021/01/10 12:24:56;;;;;;;15.85;11.23;;;4.00;95.90;;;;;;4987553;28;20034;-31
2021/01/10 12:27:24;;;;;;;15.30;11.00;;;4.00;95.90;;;;;;4987324;28;20357;-31
2021/01/10 12:29:50;;;;;;;15.85;12.15;;;4.00;95.90;;;;;;4986480;28;20023;-31
2021/01/10 12:32:15;;;;;;;13.57;10.77;;;4.00;95.90;;;;;;4983006;28;20056;-32
2021/01/10 12:34:41;;;;;;;15.45;10.15;;;4.00;95.90;;;;;;4982062;28;20079;-30
2021/01/10 12:37:06;;;;;;;12.88;9.90;;;4.00;96.00;;;;;;4980306;28;20069;-31
2021/01/10 12:39:32;;;;;;;13.77;10.10;;;4.00;96.00;;;;;;4981673;28;20956;-30
2021/01/10 12:42:00;;;;;;;11.88;9.52;;;4.00;96.00;;;;;;4979975;28;20027;-31
2021/01/10 12:44:28;;;;;;;12.40;9.55;;;4.00;96.00;;;;;;4962717;28;20856;-31
2021/01/10 12:46:54;;;;;;;12.15;9.30;;;4.00;96.00;;;;;;4947849;28;20167;-31
2021/01/10 12:49:19;;;;;;;12.10;8.48;;;4.10;96.00;;;;;;4979846;28;20462;-30